Time;durP1;ratioP1;P1;durP2;ratioP2;P2;SDS_P1;SDS_P2;PMS_P1;PMS_P2;Temp;Humidity;BMP_temperature;BMP_pressure;BME280_temperature;BME280_humidity;BME280_pressure;Samples;Min_cycle;Max_cycle;Signal;HPM_P1;HPM_P2
2022/01/08 00:01:59;;;;;;;;;0.00;0.00;;;;;6.64;100.00;101204.94;5035933;28;45289;-74
2022/01/08 00:04:25;;;;;;;;;0.00;0.00;;;;;6.55;100.00;101213.72;5035468;28;45814;-75
2022/01/08 00:06:51;;;;;;;;;0.00;0.00;;;;;6.52;100.00;101216.97;5017501;28;45412;-75
2022/01/08 00:09:16;;;;;;;;;0.00;0.00;;;;;6.47;100.00;101214.09;5027192;28;45347;-74
2022/01/08 00:11:42;;;;;;;;;0.00;0.00;;;;;6.41;100.00;101228.22;5035974;28;45598;-75
2022/01/08 00:14:10;;;;;;;;;0.00;0.00;;;;;6.37;100.00;101232.25;5016776;28;47855;-74
2022/01/08 00:16:37;;;;;;;;;0.25;0.25;;;;;6.34;100.00;101240.66;5022948;28;45339;-74
2022/01/08 00:19:06;;;;;;;;;0.00;0.00;;;;;6.38;100.00;101244.34;5033324;28;45449;-74
2022/01/08 00:21:32;;;;;;;;;0.00;0.00;;;;;6.39;100.00;101232.34;5042376;28;45534;-75
2022/01/08 00:23:58;;;;;;;;;0.00;0.00;;;;;6.41;100.00;101238.50;5041642;28;45288;-74
2022/01/08 00:26:24;;;;;;;;;0.00;0.00;;;;;6.38;100.00;101240.84;5041779;28;45406;-75
2022/01/08 00:28:50;;;;;;;;;0.00;0.00;;;;;6.38;100.00;101230.56;5033741;28;45178;-75
2022/01/08 00:31:15;;;;;;;;;0.00;0.00;;;;;6.33;100.00;101232.84;5042542;28;45347;-75
2022/01/08 00:33:41;;;;;;;;;0.00;0.00;;;;;6.32;100.00;101237.09;5036933;28;46207;-75
2022/01/08 00:36:07;;;;;;;;;0.00;0.00;;;;;6.32;100.00;101241.31;5030557;28;45426;-75
2022/01/08 00:38:33;;;;;;;;;0.00;0.00;;;;;6.34;100.00;101248.38;5033354;28;45434;-75
2022/01/08 00:40:59;;;;;;;;;0.00;0.00;;;;;6.36;100.00;101251.06;5033688;28;45477;-75
2022/01/08 00:43:25;;;;;;;;;0.00;0.00;;;;;6.41;100.00;101256.50;5023280;28;47964;-75
2022/01/08 00:45:51;;;;;;;;;0.00;0.00;;;;;6.38;100.00;101262.34;5041509;28;45777;-75
2022/01/08 00:48:17;;;;;;;;;0.00;0.00;;;;;6.41;100.00;101262.56;5040898;28;45316;-75
2022/01/08 00:50:43;;;;;;;;;0.00;0.00;;;;;6.43;100.00;101262.66;5041954;28;45492;-75
2022/01/08 00:53:09;;;;;;;;;0.25;0.00;;;;;6.43;100.00;101268.69;5041390;28;46070;-75
2022/01/08 00:55:34;;;;;;;;;1.00;0.00;;;;;6.40;100.00;101275.28;5041404;28;45828;-74
2022/01/08 00:58:00;;;;;;;;;1.00;0.00;;;;;6.40;100.00;101281.34;5034791;28;45595;-75
2022/01/08 01:00:26;;;;;;;;;0.00;0.00;;;;;6.39;100.00;101286.38;5041523;28;45639;-75
2022/01/08 01:02:53;;;;;;;;;1.00;1.00;;;;;6.42;100.00;101286.59;5022946;28;47778;-75
2022/01/08 01:05:20;;;;;;;;;1.25;1.00;;;;;6.44;100.00;101285.91;5041582;28;45718;-74
2022/01/08 01:07:46;;;;;;;;;1.00;0.25;;;;;6.49;100.00;101286.22;5037301;28;45426;-74
2022/01/08 01:10:12;;;;;;;;;0.50;0.50;;;;;6.54;100.00;101286.53;5039128;28;45253;-75
2022/01/08 01:12:38;;;;;;;;;0.00;0.00;;;;;6.56;100.00;101279.81;5041511;28;45968;-75
2022/01/08 01:15:05;;;;;;;;;0.25;0.25;;;;;6.57;100.00;101286.75;5041032;28;45426;-75
2022/01/08 01:17:31;;;;;;;;;0.00;0.00;;;;;6.58;100.00;101289.44;5035980;28;45351;-75
2022/01/08 01:19:56;;;;;;;;;0.00;0.00;;;;;6.60;100.00;101289.53;5036974;28;45323;-75
2022/01/08 01:22:27;;;;;;;;;1.00;0.75;;;;;6.62;100.00;101293.13;5040886;28;46047;-75
2022/01/08 01:25:00;;;;;;;;;1.00;1.00;;;;;6.56;100.00;101290.09;5041185;28;45321;-74
2022/01/08 01:30:16;;;;;;;;;0.50;0.50;;;;;6.52;100.00;101280.41;5035187;28;45316;-74
2022/01/08 01:49:06;;;;;;;;;1.00;1.00;;;;;6.57;100.00;101284.19;5026316;28;45198;-74
2022/01/08 01:51:32;;;;;;;;;2.00;1.00;;;;;6.58;100.00;101293.69;5038009;28;45383;-74
2022/01/08 01:53:58;;;;;;;;;1.00;1.00;;;;;6.60;100.00;101284.41;5037314;28;46101;-74
2022/01/08 01:56:24;;;;;;;;;1.00;1.00;;;;;6.62;100.00;101283.69;5037347;28;45347;-75
2022/01/08 01:58:50;;;;;;;;;0.75;0.75;;;;;6.59;100.00;101283.47;5025950;28;45459;-75
2022/01/08 02:01:16;;;;;;;;;1.00;1.00;;;;;6.58;100.00;101291.09;5038157;28;45362;-74
2022/01/08 02:03:42;;;;;;;;;3.00;1.00;;;;;6.53;100.00;101280.50;5037096;28;45500;-75
2022/01/08 02:06:08;;;;;;;;;1.00;0.25;;;;;6.48;100.00;101271.56;5036823;28;45783;-75
2022/01/08 02:08:35;;;;;;;;;1.00;1.00;;;;;6.51;100.00;101279.50;5029649;28;45498;-74
2022/01/08 02:11:01;;;;;;;;;1.00;1.00;;;;;6.54;100.00;101283.97;5035652;28;45426;-75
2022/01/08 02:13:28;;;;;;;;;2.25;2.00;;;;;6.56;100.00;101292.69;5037174;28;45333;-75
2022/01/08 02:15:55;;;;;;;;;3.00;1.00;;;;;6.54;100.00;101297.72;5018883;28;45715;-75
2022/01/08 02:18:27;;;;;;;;;2.50;1.00;;;;;6.56;100.00;101293.59;5018264;28;45578;-74
2022/01/08 02:20:58;;;;;;;;;3.00;3.00;;;;;6.55;100.00;101293.47;5037482;28;45350;-75
2022/01/08 02:23:25;;;;;;;;;0.75;0.75;;;;;6.56;100.00;101298.72;5037171;28;46249;-74
2022/01/08 02:25:51;;;;;;;;;3.00;2.75;;;;;6.56;100.00;101303.88;5036951;28;45269;-74
2022/01/08 02:28:17;;;;;;;;;1.00;1.00;;;;;6.56;100.00;101308.13;5026238;28;45298;-74
2022/01/08 02:30:43;;;;;;;;;1.00;0.50;;;;;6.53;100.00;101297.63;5019312;28;45269;-74
2022/01/08 02:33:10;;;;;;;;;1.50;1.50;;;;;6.53;100.00;101285.66;5036983;28;45509;-74
2022/01/08 02:35:35;;;;;;;;;1.50;1.00;;;;;6.48;100.00;101290.47;5018938;28;45559;-74
2022/01/08 02:38:01;;;;;;;;;1.25;1.00;;;;;6.52;100.00;101301.88;5008867;28;45356;-74
2022/01/08 02:40:27;;;;;;;;;1.75;0.75;;;;;6.55;100.00;101296.03;5035687;28;45722;-74
2022/01/08 02:43:01;;;;;;;;;1.00;1.00;;;;;6.55;100.00;101296.03;5018709;28;45720;-74
2022/01/08 02:45:29;;;;;;;;;2.50;1.75;;;;;6.54;100.00;101295.16;5036680;28;45786;-74
2022/01/08 02:47:56;;;;;;;;;1.75;1.50;;;;;6.52;100.00;101289.00;5028177;28;45338;-74
2022/01/08 02:50:23;;;;;;;;;0.00;0.00;;;;;6.49;100.00;101293.94;5035812;28;45507;-74
2022/01/08 02:52:50;;;;;;;;;1.25;1.00;;;;;6.47;100.00;101300.69;5035797;28;47455;-74
2022/01/08 02:55:18;;;;;;;;;0.00;0.00;;;;;6.47;100.00;101317.00;5036732;28;45782;-74
2022/01/08 02:57:44;;;;;;;;;0.75;0.75;;;;;6.40;100.00;101319.94;5029643;28;45570;-74
2022/01/08 03:00:12;;;;;;;;;1.50;1.50;;;;;6.38;100.00;101305.16;5033577;28;46024;-74
2022/01/08 03:02:46;;;;;;;;;1.00;1.00;;;;;6.38;100.00;101315.44;5036284;28;46300;-74
2022/01/08 03:05:13;;;;;;;;;1.00;0.25;;;;;6.37;100.00;101313.69;5035831;28;46588;-74
2022/01/08 03:07:40;;;;;;;;;0.00;0.00;;;;;6.42;100.00;101309.72;5030648;28;45693;-74
2022/01/08 03:10:08;;;;;;;;;1.00;1.00;;;;;6.45;100.00;101318.56;5033180;28;45517;-74
2022/01/08 03:12:38;;;;;;;;;0.00;0.00;;;;;6.47;100.00;101316.09;5020668;28;45348;-74
2022/01/08 03:15:05;;;;;;;;;0.50;0.25;;;;;6.46;100.00;101309.19;5035888;28;45770;-74
2022/01/08 03:17:31;;;;;;;;;0.00;0.00;;;;;6.47;100.00;101301.56;5032377;28;45475;-74
2022/01/08 03:20:03;;;;;;;;;1.25;1.00;;;;;6.49;100.00;101296.50;5032128;28;45345;-74
2022/01/08 03:22:29;;;;;;;;;1.00;1.00;;;;;6.50;100.00;101299.19;5035767;28;45462;-75
2022/01/08 03:24:55;;;;;;;;;0.00;0.00;;;;;6.49;100.00;101297.41;5036096;28;45717;-75
2022/01/08 03:27:21;;;;;;;;;0.25;0.25;;;;;6.44;100.00;101290.16;5033852;28;45582;-75
2022/01/08 03:29:46;;;;;;;;;0.00;0.00;;;;;6.43;100.00;101286.69;5013085;28;45527;-74
2022/01/08 03:32:12;;;;;;;;;0.00;0.00;;;;;6.41;100.00;101293.44;5035527;28;45538;-73
2022/01/08 03:34:38;;;;;;;;;0.50;0.50;;;;;6.39;100.00;101292.41;5036226;28;45366;-74
2022/01/08 03:37:03;;;;;;;;;1.00;1.00;;;;;6.41;100.00;101297.66;5035702;28;45379;-74
2022/01/08 03:39:29;;;;;;;;;2.00;1.00;;;;;6.42;100.00;101296.88;5028480;28;45473;-74
2022/01/08 03:41:55;;;;;;;;;0.00;0.00;;;;;6.40;100.00;101301.94;5035557;28;46028;-74
2022/01/08 03:44:21;;;;;;;;;0.00;0.00;;;;;6.41;100.00;101302.81;5035563;28;45481;-75
2022/01/08 03:46:46;;;;;;;;;1.75;0.50;;;;;6.42;100.00;101300.38;5035794;28;45468;-74
2022/01/08 03:49:24;;;;;;;;;1.00;1.00;;;;;6.43;100.00;101304.69;5028322;28;45628;-74
2022/01/08 03:51:52;;;;;;;;;0.00;0.00;;;;;6.42;100.00;101308.06;5026615;28;46375;-74
2022/01/08 03:54:18;;;;;;;;;0.00;0.00;;;;;6.42;100.00;101305.50;5034385;28;46102;-74
2022/01/08 03:56:43;;;;;;;;;0.75;0.00;;;;;6.42;100.00;101300.38;5035926;28;45407;-74
2022/01/08 03:59:09;;;;;;;;;0.75;0.00;;;;;6.43;100.00;101301.25;5028353;28;45387;-74
2022/01/08 04:01:34;;;;;;;;;0.00;0.00;;;;;6.41;100.00;101290.84;5035739;28;45831;-74
2022/01/08 04:04:00;;;;;;;;;0.75;0.75;;;;;6.43;100.00;101294.41;5035504;28;45401;-74
2022/01/08 04:06:26;;;;;;;;;0.00;0.00;;;;;6.43;100.00;101291.81;5035560;28;45335;-74
2022/01/08 04:08:56;;;;;;;;;0.00;0.00;;;;;6.45;100.00;101302.25;5028856;28;45395;-74
2022/01/08 04:11:23;;;;;;;;;1.25;1.00;;;;;6.46;100.00;101304.91;5035660;28;45445;-74
2022/01/08 04:13:49;;;;;;;;;0.00;0.00;;;;;6.49;100.00;101307.69;5035970;28;45738;-75
2022/01/08 04:16:19;;;;;;;;;3.00;0.00;;;;;6.49;100.00;101300.00;5035453;28;45316;-74
2022/01/08 04:18:45;;;;;;;;;2.25;1.00;;;;;6.46;100.00;101302.34;5027194;28;45558;-74
2022/01/08 04:23:56;;;;;;;;;1.00;0.00;;;;;6.47;100.00;101291.25;5035238;28;45459;-74
2022/01/08 04:26:23;;;;;;;;;1.50;0.50;;;;;6.52;100.00;101293.28;5017352;28;45703;-74
2022/01/08 04:28:55;;;;;;;;;1.00;1.00;;;;;6.56;100.00;101287.53;5033575;28;45256;-74
2022/01/08 04:31:22;;;;;;;;;1.00;1.00;;;;;6.61;100.00;101291.34;5035038;28;45423;-74
2022/01/08 04:33:48;;;;;;;;;3.00;2.00;;;;;6.62;100.00;101295.69;5031307;28;45860;-74
2022/01/08 04:36:14;;;;;;;;;2.50;1.00;;;;;6.60;100.00;101282.69;5032805;28;45256;-73
2022/01/08 04:38:40;;;;;;;;;1.75;1.00;;;;;6.62;100.00;101295.69;5026902;28;45332;-74
2022/01/08 04:41:06;;;;;;;;;1.00;1.00;;;;;6.64;100.00;101296.69;5034714;28;45456;-73
2022/01/08 04:43:33;;;;;;;;;0.75;0.75;;;;;6.64;100.00;101286.41;5035079;28;45250;-74
2022/01/08 04:45:59;;;;;;;;;1.50;0.25;;;;;6.62;100.00;101287.97;5016865;28;45394;-74
2022/01/08 04:48:25;;;;;;;;;3.50;0.75;;;;;6.62;100.00;101293.13;5026743;28;45566;-74
2022/01/08 04:50:51;;;;;;;;;1.25;1.00;;;;;6.64;100.00;101299.28;5034535;28;45454;-74
2022/01/08 04:53:16;;;;;;;;;2.00;0.25;;;;;6.64;100.00;101318.16;5035248;28;45442;-73
2022/01/08 04:55:42;;;;;;;;;2.00;1.00;;;;;6.66;100.00;101316.59;5032728;28;45516;-73
2022/01/08 04:58:08;;;;;;;;;1.00;1.00;;;;;6.72;100.00;101315.22;5023994;28;45322;-74
2022/01/08 05:00:33;;;;;;;;;0.00;0.00;;;;;6.78;100.00;101323.38;5016853;28;46862;-73
2022/01/08 05:03:00;;;;;;;;;1.00;1.00;;;;;6.87;100.00;101323.06;5035336;28;45482;-73
2022/01/08 05:05:26;;;;;;;;;1.00;1.00;;;;;6.93;100.00;101329.53;5020687;28;45427;-73
2022/01/08 05:07:52;;;;;;;;;2.00;0.50;;;;;6.97;100.00;101328.97;5024889;28;45345;-74
2022/01/08 05:10:18;;;;;;;;;1.00;1.00;;;;;6.99;100.00;101320.47;5036829;28;46086;-74
2022/01/08 05:12:44;;;;;;;;;1.00;0.75;;;;;7.00;100.00;101310.25;5038012;28;45265;-74
2022/01/08 05:15:11;;;;;;;;;1.75;1.75;;;;;7.01;100.00;101308.59;5038033;28;45405;-74
2022/01/08 05:17:39;;;;;;;;;1.25;0.00;;;;;7.02;100.00;101298.38;5036628;28;45432;-74
2022/01/08 05:20:10;;;;;;;;;1.00;1.00;;;;;7.00;100.00;101288.78;5037511;28;45784;-74
2022/01/08 05:25:19;;;;;;;;;1.50;1.00;;;;;6.99;100.00;101300.75;5037921;28;45394;-74
2022/01/08 05:27:46;;;;;;;;;1.00;1.00;;;;;7.01;100.00;101312.03;5036847;28;45391;-74
2022/01/08 05:30:14;;;;;;;;;2.00;2.00;;;;;7.02;100.00;101308.69;5037025;28;46314;-74
2022/01/08 05:32:40;;;;;;;;;2.25;0.00;;;;;7.05;100.00;101297.69;5037917;28;45792;-74
2022/01/08 05:35:06;;;;;;;;;0.00;0.00;;;;;7.06;100.00;101297.81;5037870;28;45476;-74
2022/01/08 05:37:32;;;;;;;;;0.75;0.75;;;;;7.06;100.00;101290.09;5036485;28;45347;-74
2022/01/08 05:39:58;;;;;;;;;1.00;0.00;;;;;7.06;100.00;101278.88;5033109;28;45379;-74
2022/01/08 05:42:23;;;;;;;;;1.00;1.00;;;;;7.06;100.00;101271.16;5037208;28;45375;-74
2022/01/08 05:44:49;;;;;;;;;0.00;0.00;;;;;7.08;100.00;101265.31;5038077;28;45254;-74
2022/01/08 05:47:15;;;;;;;;;1.00;1.00;;;;;7.08;100.00;101265.31;5038415;28;45241;-74
2022/01/08 05:49:41;;;;;;;;;0.25;0.25;;;;;7.12;100.00;101272.47;5031491;28;45369;-74
2022/01/08 05:52:10;;;;;;;;;0.00;0.00;;;;;7.12;100.00;101269.88;5037053;28;45382;-74
2022/01/08 05:54:36;;;;;;;;;0.00;0.00;;;;;7.14;100.00;101267.41;5022372;28;45391;-74
2022/01/08 05:57:02;;;;;;;;;1.00;0.00;;;;;7.15;100.00;101268.31;5037573;28;45364;-74
2022/01/08 05:59:28;;;;;;;;;1.00;0.25;;;;;7.16;100.00;101275.25;5037356;28;46156;-74
2022/01/08 06:01:55;;;;;;;;;0.00;0.00;;;;;7.19;100.00;101275.41;5038081;28;46839;-74
2022/01/08 06:04:20;;;;;;;;;1.00;1.00;;;;;7.20;100.00;101279.78;5037393;28;45428;-74
2022/01/08 06:06:46;;;;;;;;;3.00;1.00;;;;;7.20;100.00;101285.84;5036118;28;45514;-74
2022/01/08 06:09:12;;;;;;;;;0.50;0.50;;;;;7.17;100.00;101288.22;5034308;28;46818;-74
2022/01/08 06:11:38;;;;;;;;;0.00;0.00;;;;;7.18;100.00;101290.00;5030090;28;45430;-74
2022/01/08 06:14:04;;;;;;;;;0.50;0.00;;;;;7.17;100.00;101292.47;5036564;28;45515;-74
2022/01/08 06:16:34;;;;;;;;;0.00;0.00;;;;;7.20;100.00;101284.94;5037262;28;45561;-74
2022/01/08 06:19:08;;;;;;;;;1.00;0.00;;;;;7.23;100.00;101282.56;5036838;28;45346;-74
2022/01/08 06:21:33;;;;;;;;;0.00;0.00;;;;;7.20;100.00;101261.75;5035336;28;45826;-74
2022/01/08 06:23:59;;;;;;;;;0.00;0.00;;;;;7.23;100.00;101262.88;5036804;28;45412;-74
2022/01/08 06:26:25;;;;;;;;;1.25;0.00;;;;;7.26;100.00;101250.19;5037144;28;45212;-74
2022/01/08 06:28:51;;;;;;;;;1.00;1.00;;;;;7.31;100.00;101253.03;5050165;28;46136;-74
2022/01/08 06:31:21;;;;;;;;;0.00;0.00;;;;;7.32;100.00;101260.00;5030650;28;45717;-74
2022/01/08 06:33:47;;;;;;;;;0.75;0.75;;;;;7.34;100.00;101270.41;5019478;28;45363;-74
2022/01/08 06:36:14;;;;;;;;;1.50;1.00;;;;;7.35;100.00;101273.06;5020170;28;45325;-74
2022/01/08 06:38:40;;;;;;;;;0.00;0.00;;;;;7.38;100.00;101264.66;5034857;28;46168;-75
2022/01/08 06:41:06;;;;;;;;;1.00;0.00;;;;;7.40;100.00;101260.50;5035659;28;45623;-74
2022/01/08 06:43:31;;;;;;;;;1.25;0.25;;;;;7.42;100.00;101252.06;5037071;28;45440;-74
2022/01/08 06:45:57;;;;;;;;;0.00;0.00;;;;;7.46;100.00;101239.38;5036751;28;45253;-74
2022/01/08 06:48:23;;;;;;;;;1.00;0.00;;;;;7.51;100.00;101240.56;5027692;28;45447;-76
2022/01/08 06:50:49;;;;;;;;;0.25;0.25;;;;;7.57;100.00;101246.13;5034979;28;45427;-74
2022/01/08 06:53:15;;;;;;;;;1.00;1.00;;;;;7.64;100.00;101239.69;5036803;28;45374;-74
2022/01/08 06:55:40;;;;;;;;;0.75;0.75;;;;;7.69;100.00;101239.19;5037103;28;45439;-74
2022/01/08 06:58:09;;;;;;;;;1.75;0.50;;;;;7.73;100.00;101235.97;5034274;28;45490;-75
2022/01/08 07:00:34;;;;;;;;;3.25;2.00;;;;;7.75;100.00;101234.41;5029826;28;45439;-74
2022/01/08 07:03:00;;;;;;;;;2.00;1.00;;;;;7.75;100.00;101229.25;5036421;28;45313;-74
2022/01/08 07:05:26;;;;;;;;;1.50;0.00;;;;;7.77;100.00;101228.44;5036692;28;45193;-74
2022/01/08 07:07:51;;;;;;;;;1.00;1.00;;;;;7.78;100.00;101233.69;5034265;28;45361;-73
2022/01/08 07:10:17;;;;;;;;;0.00;0.00;;;;;7.77;100.00;101231.03;5035782;28;45367;-74
2022/01/08 07:12:43;;;;;;;;;1.00;1.00;;;;;7.73;100.00;101220.50;5036552;28;45309;-74
2022/01/08 07:15:09;;;;;;;;;0.50;0.00;;;;;7.69;100.00;101222.81;5035466;28;45609;-74
2022/01/08 07:17:34;;;;;;;;;1.50;1.50;;;;;7.65;100.00;101214.00;5025004;28;46018;-74
2022/01/08 07:20:00;;;;;;;;;0.50;0.25;;;;;7.64;100.00;101208.75;5011768;28;45494;-74
2022/01/08 07:22:27;;;;;;;;;1.25;1.00;;;;;7.60;100.00;101192.22;5035868;28;45514;-74
2022/01/08 07:24:53;;;;;;;;;3.00;2.00;;;;;7.59;100.00;101195.59;5036440;28;45510;-75
2022/01/08 07:27:18;;;;;;;;;4.25;2.75;;;;;7.57;100.00;101197.16;5035817;28;45374;-75
2022/01/08 07:29:44;;;;;;;;;2.00;1.00;;;;;7.54;100.00;101194.38;5037387;28;45492;-75
2022/01/08 07:32:09;;;;;;;;;2.25;1.75;;;;;7.54;100.00;101194.38;5044665;28;45395;-75
2022/01/08 07:34:35;;;;;;;;;4.00;1.50;;;;;7.54;100.00;101186.66;5036228;28;45333;-75
2022/01/08 07:37:00;;;;;;;;;3.50;2.25;;;;;7.59;100.00;101193.88;5035767;28;46132;-75
2022/01/08 07:39:26;;;;;;;;;0.00;0.00;;;;;7.66;100.00;101200.31;5007512;28;45546;-73
2022/01/08 07:41:51;;;;;;;;;1.50;1.00;;;;;7.70;100.00;101199.72;5030780;28;45268;-76
2022/01/08 07:44:17;;;;;;;;;2.25;2.25;;;;;7.73;100.00;101193.88;5036318;28;45540;-73
2022/01/08 07:46:42;;;;;;;;;1.00;1.00;;;;;7.77;100.00;101185.53;5035860;28;45358;-74
2022/01/08 07:49:09;;;;;;;;;2.25;2.25;;;;;7.80;100.00;101183.13;5028258;28;45506;-75
2022/01/08 07:51:35;;;;;;;;;2.75;1.00;;;;;7.84;100.00;101192.84;5028861;28;45946;-75
2022/01/08 07:54:00;;;;;;;;;2.00;2.00;;;;;7.84;100.00;101182.53;5035754;28;45399;-75
2022/01/08 07:56:26;;;;;;;;;3.00;2.00;;;;;7.89;100.00;101181.13;5035288;28;45271;-75
2022/01/08 07:58:52;;;;;;;;;3.00;2.25;;;;;7.91;100.00;101168.34;5029916;28;45260;-75
2022/01/08 08:01:17;;;;;;;;;2.00;2.00;;;;;7.94;100.00;101172.78;5035822;28;45403;-75
2022/01/08 08:03:43;;;;;;;;;4.25;3.75;;;;;7.98;100.00;101177.34;5035796;28;45572;-75
2022/01/08 08:06:11;;;;;;;;;6.25;3.00;;;;;7.99;100.00;101168.81;5032712;28;46691;-75
2022/01/08 08:08:37;;;;;;;;;7.75;3.25;;;;;8.02;100.00;101166.41;5035116;28;45813;-75
2022/01/08 08:11:02;;;;;;;;;3.00;2.00;;;;;8.03;100.00;101170.75;5036157;28;45533;-74
2022/01/08 08:13:28;;;;;;;;;3.00;3.00;;;;;8.05;100.00;101167.47;5035909;28;45325;-75
2022/01/08 08:15:54;;;;;;;;;3.50;3.00;;;;;8.06;100.00;101152.91;5034929;28;46328;-75
2022/01/08 08:18:20;;;;;;;;;6.50;5.00;;;;;8.05;100.00;101144.25;5028835;28;45881;-78
2022/01/08 08:20:45;;;;;;;;;3.75;3.00;;;;;8.08;100.00;101143.59;5033919;28;45374;-75
2022/01/08 08:23:11;;;;;;;;;4.00;4.00;;;;;8.07;100.00;101139.22;5010895;28;45382;-76
2022/01/08 08:25:37;;;;;;;;;5.25;3.00;;;;;8.09;100.00;101136.72;5029424;28;45892;-78
2022/01/08 08:28:06;;;;;;;;;9.50;3.50;;;;;8.09;100.00;101131.56;5034150;28;45248;-79
2022/01/08 08:30:34;;;;;;;;;3.75;3.75;;;;;8.09;100.00;101124.72;5019459;28;45390;-82
2022/01/08 08:33:01;;;;;;;;;3.00;3.00;;;;;8.11;100.00;101128.28;5040325;28;45500;-81
2022/01/08 08:35:26;;;;;;;;;4.25;2.25;;;;;8.09;100.00;101121.25;5030512;28;45447;-78
2022/01/08 08:37:52;;;;;;;;;6.50;3.75;;;;;8.06;100.00;101103.91;5031802;28;45690;-77
2022/01/08 08:40:18;;;;;;;;;2.75;2.00;;;;;8.06;100.00;101104.78;5014946;28;45547;-82
2022/01/08 08:42:43;;;;;;;;;4.75;3.00;;;;;8.06;100.00;101104.78;5037830;28;45711;-78
2022/01/08 08:45:10;;;;;;;;;4.00;3.00;;;;;8.06;100.00;101107.38;5037762;28;45517;-81
2022/01/08 08:47:36;;;;;;;;;4.00;2.50;;;;;8.08;100.00;101099.75;5036086;28;45875;-76
2022/01/08 08:50:03;;;;;;;;;3.75;3.75;;;;;8.09;100.00;101092.88;5037735;28;45423;-76
2022/01/08 08:52:29;;;;;;;;;5.00;3.00;;;;;8.07;100.00;101087.66;5038453;28;45490;-79
2022/01/08 08:54:54;;;;;;;;;5.25;4.25;;;;;8.10;100.00;101080.06;5038214;28;45466;-81
2022/01/08 08:57:20;;;;;;;;;6.50;2.75;;;;;8.14;100.00;101083.75;5019602;28;45447;-77
2022/01/08 08:59:46;;;;;;;;;4.75;3.00;;;;;8.16;100.00;101084.69;5038721;28;45391;-76
2022/01/08 09:02:12;;;;;;;;;5.00;3.50;;;;;8.19;100.00;101074.56;5019562;28;45250;-77
2022/01/08 09:04:40;;;;;;;;;2.25;2.00;;;;;8.20;100.00;101078.94;5024664;28;46229;-76
2022/01/08 09:07:05;;;;;;;;;2.50;2.00;;;;;8.22;100.00;101079.91;5037256;28;45824;-76
2022/01/08 09:09:31;;;;;;;;;4.00;4.00;;;;;8.25;100.00;101076.63;5039487;28;45352;-81
2022/01/08 09:11:57;;;;;;;;;3.75;3.00;;;;;8.26;100.00;101076.69;5034706;28;45300;-80
2022/01/08 09:14:23;;;;;;;;;3.25;3.00;;;;;8.24;100.00;101073.16;5038442;28;45299;-79
2022/01/08 09:16:53;;;;;;;;;4.00;3.00;;;;;8.27;100.00;101067.28;5039093;28;45380;-79
2022/01/08 09:19:22;;;;;;;;;2.00;2.00;;;;;8.28;100.00;101054.47;5040073;28;45303;-80
2022/01/08 09:21:48;;;;;;;;;5.25;3.75;;;;;8.31;100.00;101044.34;5040464;28;45489;-80
2022/01/08 09:24:16;;;;;;;;;7.00;4.00;;;;;8.38;100.00;101048.16;5019436;28;47303;-79
2022/01/08 09:26:41;;;;;;;;;2.75;2.75;;;;;8.44;100.00;101045.91;5038125;28;45336;-80
2022/01/08 09:29:07;;;;;;;;;4.25;3.00;;;;;8.55;100.00;101045.66;5037516;28;45354;-79
2022/01/08 09:31:33;;;;;;;;;2.75;2.75;;;;;8.61;100.00;101046.91;5036253;28;45414;-79
2022/01/08 09:34:00;;;;;;;;;4.00;3.25;;;;;8.63;100.00;101042.72;5035718;28;45819;-79
2022/01/08 09:36:25;;;;;;;;;4.25;3.50;;;;;8.67;100.00;101046.38;5017656;28;45689;-79
2022/01/08 09:38:51;;;;;;;;;4.25;3.00;;;;;8.66;100.00;101032.59;5035470;28;45511;-80
2022/01/08 09:41:17;;;;;;;;;7.75;5.75;;;;;8.66;100.00;101029.09;5018466;28;45618;-79
2022/01/08 09:43:43;;;;;;;;;9.00;5.00;;;;;8.67;100.00;101033.47;5022111;28;45538;-79
2022/01/08 09:46:09;;;;;;;;;3.75;2.50;;;;;8.67;100.00;101018.88;5032886;28;45390;-80
2022/01/08 09:48:35;;;;;;;;;4.00;3.00;;;;;8.70;100.00;101004.34;5021449;28;45903;-80
2022/01/08 09:51:00;;;;;;;;;2.75;2.75;;;;;8.73;100.00;101005.44;5030032;28;45414;-80
2022/01/08 09:53:27;;;;;;;;;4.75;2.75;;;;;8.76;100.00;100992.66;5028479;28;46241;-79
2022/01/08 09:55:53;;;;;;;;;4.00;3.50;;;;;8.79;100.00;100994.56;5022539;28;45696;-79
2022/01/08 09:58:19;;;;;;;;;5.00;4.00;;;;;8.85;100.00;100986.25;5034184;28;45444;-79
2022/01/08 10:00:45;;;;;;;;;4.25;3.75;;;;;8.89;100.00;100986.50;5021005;28;45182;-80
2022/01/08 10:03:22;;;;;;;;;4.25;3.75;;;;;8.95;100.00;100976.50;5037142;28;45426;-80
2022/01/08 10:05:58;;;;;;;;;3.00;3.00;;;;;9.01;100.00;100975.94;5037533;28;45410;-78
2022/01/08 10:08:33;;;;;;;;;1.50;1.50;;;;;9.02;100.00;100972.56;5037266;28;45267;-80
2022/01/08 10:11:03;;;;;;;;;3.75;2.00;;;;;9.03;100.00;100976.00;5037331;28;45377;-80
2022/01/08 10:13:32;;;;;;;;;4.00;3.00;;;;;9.03;100.00;100976.00;5037146;28;46042;-80
2022/01/08 10:18:45;;;;;;;;;5.75;3.00;;;;;9.01;100.00;100959.56;5022755;28;45323;-80
2022/01/08 10:21:21;;;;;;;;;2.00;2.00;;;;;9.03;100.00;100958.84;5036967;28;45557;-79
2022/01/08 10:24:00;;;;;;;;;4.00;4.00;;;;;9.07;100.00;100958.16;5037356;28;45412;-80
2022/01/08 10:26:31;;;;;;;;;7.75;3.00;;;;;9.07;100.00;100955.59;5036729;28;45649;-80
2022/01/08 10:29:00;;;;;;;;;3.50;2.50;;;;;9.05;100.00;100941.72;5036828;28;45240;-79
2022/01/08 10:31:40;;;;;;;;;6.25;3.50;;;;;9.05;100.00;100943.41;5019210;28;45544;-80
2022/01/08 10:34:13;;;;;;;;;3.00;3.00;;;;;9.06;100.00;100934.84;5036151;28;46046;-77
2022/01/08 10:36:43;;;;;;;;;3.50;2.50;;;;;9.05;100.00;100936.56;5022004;28;45285;-80
2022/01/08 10:39:27;;;;;;;;;5.00;3.00;;;;;9.02;100.00;100922.56;5036631;28;45229;-81
2022/01/08 10:41:54;;;;;;;;;3.25;3.25;;;;;9.05;100.00;100915.91;5036913;28;45396;-80
2022/01/08 10:44:30;;;;;;;;;3.25;3.25;;;;;9.05;100.00;100905.56;5036469;28;45215;-79
2022/01/08 10:47:13;;;;;;;;;5.75;4.25;;;;;9.05;100.00;100905.56;5039350;28;45453;-80
2022/01/08 10:49:56;;;;;;;;;8.75;3.00;;;;;9.09;100.00;100902.31;5051633;28;45311;-81
2022/01/08 10:52:22;;;;;;;;;5.00;5.00;;;;;9.11;100.00;100902.44;5042520;28;45220;-76
2022/01/08 10:54:55;;;;;;;;;7.75;4.25;;;;;9.10;100.00;100886.03;5036699;28;45542;-79
2022/01/08 10:57:29;;;;;;;;;5.25;4.00;;;;;9.11;100.00;100879.19;5036593;28;45932;-79
2022/01/08 10:59:56;;;;;;;;;4.25;3.00;;;;;9.12;100.00;100873.22;5036261;28;45393;-79
2022/01/08 11:02:26;;;;;;;;;3.00;3.00;;;;;9.12;100.00;100868.91;5035929;28;45624;-77
2022/01/08 11:04:54;;;;;;;;;9.00;4.50;;;;;9.16;100.00;100872.53;5036099;28;45513;-77
2022/01/08 11:07:20;;;;;;;;;7.50;3.75;;;;;9.12;100.00;100865.47;5036651;28;45407;-78
2022/01/08 11:09:48;;;;;;;;;3.00;3.00;;;;;9.12;100.00;100856.00;5039355;28;45490;-81
2022/01/08 11:12:17;;;;;;;;;5.50;4.25;;;;;9.11;100.00;100836.16;5038485;28;45441;-79
2022/01/08 11:17:26;;;;;;;;;3.50;3.00;;;;;9.12;100.00;100829.31;5030776;28;45581;-78
2022/01/08 11:19:57;;;;;;;;;5.00;4.50;;;;;9.12;100.00;100813.81;5033504;28;45498;-83
2022/01/08 11:22:26;;;;;;;;;4.00;4.00;;;;;9.12;100.00;100825.00;5038198;28;45482;-93
2022/01/08 11:25:03;;;;;;;;;5.00;3.00;;;;;9.16;100.00;100812.25;5040590;28;45644;-82
2022/01/08 11:28:07;;;;;;;;;5.25;3.75;;;;;9.14;100.00;100791.50;5051082;28;45787;-80
2022/01/08 11:30:52;;;;;;;;;4.25;2.75;;;;;9.17;100.00;100802.00;5048550;28;45311;-83
2022/01/08 11:33:26;;;;;;;;;4.50;3.00;;;;;9.18;100.00;100792.56;5027076;28;45407;-82
2022/01/08 11:35:53;;;;;;;;;7.75;4.00;;;;;9.18;100.00;100777.94;5013067;28;46628;-86
2022/01/08 11:38:21;;;;;;;;;1.50;1.50;;;;;9.11;100.00;100757.78;5019521;28;45439;-84
2022/01/08 11:40:49;;;;;;;;;4.50;3.00;;;;;9.20;100.00;100767.66;5038059;28;45284;-83
2022/01/08 11:43:18;;;;;;;;;4.00;2.75;;;;;9.20;100.00;100747.91;5036523;28;45507;-79
2022/01/08 11:46:00;;;;;;;;;11.00;4.75;;;;;9.17;100.00;100742.56;5035751;28;46240;-81
2022/01/08 11:48:38;;;;;;;;;6.50;3.75;;;;;9.19;100.00;100727.16;5016170;28;45924;-81
2022/01/08 11:51:06;;;;;;;;;6.25;5.00;;;;;9.21;100.00;100721.25;5034100;28;45525;-82
2022/01/08 11:53:46;;;;;;;;;5.00;5.00;;;;;9.20;100.00;100709.16;5035028;28;45328;-82
2022/01/08 11:56:26;;;;;;;;;6.50;5.00;;;;;9.26;100.00;100706.84;5016969;28;46817;-80